sensor_id;sensor_type;location;lat;lon;timestamp;P1;durP1;ratioP1;P2;durP2;ratioP2
6223;SDS011;3145;42.726;23.342;2024-02-23T00:00:12;15.93;;;12.93;;
6223;SDS011;3145;42.726;23.342;2024-02-23T00:02:39;18.40;;;13.83;;
6223;SDS011;3145;42.726;23.342;2024-02-23T00:05:07;21.50;;;14.93;;
6223;SDS011;3145;42.726;23.342;2024-02-23T00:07:34;17.10;;;14.20;;
6223;SDS011;3145;42.726;23.342;2024-02-23T00:10:01;21.60;;;13.43;;
6223;SDS011;3145;42.726;23.342;2024-02-23T00:12:28;21.50;;;14.37;;
6223;SDS011;3145;42.726;23.342;2024-02-23T00:14:54;16.40;;;13.27;;
6223;SDS011;3145;42.726;23.342;2024-02-23T00:17:21;14.37;;;12.53;;
6223;SDS011;3145;42.726;23.342;2024-02-23T00:19:48;29.90;;;20.60;;
6223;SDS011;3145;42.726;23.342;2024-02-23T00:22:19;15.00;;;12.67;;
6223;SDS011;3145;42.726;23.342;2024-02-23T00:24:45;21.90;;;16.67;;
6223;SDS011;3145;42.726;23.342;2024-02-23T00:27:12;23.33;;;16.40;;
6223;SDS011;3145;42.726;23.342;2024-02-23T00:29:39;20.50;;;13.73;;
6223;SDS011;3145;42.726;23.342;2024-02-23T00:32:06;12.80;;;11.40;;
6223;SDS011;3145;42.726;23.342;2024-02-23T00:34:33;56.93;;;30.87;;
6223;SDS011;3145;42.726;23.342;2024-02-23T00:37:00;14.17;;;11.50;;
6223;SDS011;3145;42.726;23.342;2024-02-23T00:39:28;11.13;;;10.13;;
6223;SDS011;3145;42.726;23.342;2024-02-23T00:41:56;11.00;;;9.90;;
6223;SDS011;3145;42.726;23.342;2024-02-23T00:44:23;12.20;;;11.00;;
6223;SDS011;3145;42.726;23.342;2024-02-23T00:46:50;41.03;;;22.57;;
6223;SDS011;3145;42.726;23.342;2024-02-23T00:49:16;16.63;;;13.27;;
6223;SDS011;3145;42.726;23.342;2024-02-23T00:51:43;18.47;;;14.33;;
6223;SDS011;3145;42.726;23.342;2024-02-23T00:54:10;21.93;;;16.97;;
6223;SDS011;3145;42.726;23.342;2024-02-23T00:56:38;21.77;;;15.43;;
6223;SDS011;3145;42.726;23.342;2024-02-23T00:59:05;19.57;;;13.93;;
6223;SDS011;3145;42.726;23.342;2024-02-23T01:01:31;14.27;;;10.73;;
6223;SDS011;3145;42.726;23.342;2024-02-23T01:03:58;14.90;;;13.10;;
6223;SDS011;3145;42.726;23.342;2024-02-23T01:06:25;27.33;;;17.67;;
6223;SDS011;3145;42.726;23.342;2024-02-23T01:08:53;18.90;;;15.43;;
6223;SDS011;3145;42.726;23.342;2024-02-23T01:11:20;17.97;;;13.33;;
6223;SDS011;3145;42.726;23.342;2024-02-23T01:13:48;15.63;;;12.47;;
6223;SDS011;3145;42.726;23.342;2024-02-23T01:16:15;19.13;;;14.30;;
6223;SDS011;3145;42.726;23.342;2024-02-23T01:18:42;14.07;;;11.87;;
6223;SDS011;3145;42.726;23.342;2024-02-23T01:21:09;15.57;;;12.80;;
6223;SDS011;3145;42.726;23.342;2024-02-23T01:23:36;15.53;;;12.80;;
6223;SDS011;3145;42.726;23.342;2024-02-23T01:26:03;18.10;;;14.77;;
6223;SDS011;3145;42.726;23.342;2024-02-23T01:28:29;19.07;;;15.20;;
6223;SDS011;3145;42.726;23.342;2024-02-23T01:30:58;17.73;;;14.23;;
6223;SDS011;3145;42.726;23.342;2024-02-23T01:33:24;17.30;;;14.20;;
6223;SDS011;3145;42.726;23.342;2024-02-23T01:35:51;22.20;;;16.57;;
6223;SDS011;3145;42.726;23.342;2024-02-23T01:38:18;19.30;;;15.30;;
6223;SDS011;3145;42.726;23.342;2024-02-23T01:40:46;16.93;;;13.57;;
6223;SDS011;3145;42.726;23.342;2024-02-23T01:43:13;16.20;;;13.53;;
6223;SDS011;3145;42.726;23.342;2024-02-23T01:45:40;21.13;;;15.90;;
6223;SDS011;3145;42.726;23.342;2024-02-23T01:48:08;15.93;;;12.97;;
6223;SDS011;3145;42.726;23.342;2024-02-23T01:50:35;13.37;;;11.60;;
6223;SDS011;3145;42.726;23.342;2024-02-23T01:53:03;20.57;;;13.60;;
6223;SDS011;3145;42.726;23.342;2024-02-23T01:55:30;16.17;;;12.50;;
6223;SDS011;3145;42.726;23.342;2024-02-23T01:57:57;12.43;;;10.43;;
6223;SDS011;3145;42.726;23.342;2024-02-23T02:00:25;28.43;;;16.07;;
6223;SDS011;3145;42.726;23.342;2024-02-23T02:02:53;79.67;;;40.00;;
6223;SDS011;3145;42.726;23.342;2024-02-23T02:05:21;53.93;;;27.80;;
6223;SDS011;3145;42.726;23.342;2024-02-23T02:07:49;28.10;;;18.23;;
6223;SDS011;3145;42.726;23.342;2024-02-23T02:10:18;33.57;;;20.60;;
6223;SDS011;3145;42.726;23.342;2024-02-23T02:12:46;20.97;;;14.87;;
6223;SDS011;3145;42.726;23.342;2024-02-23T02:15:13;19.73;;;15.93;;
6223;SDS011;3145;42.726;23.342;2024-02-23T02:17:40;27.60;;;17.87;;
6223;SDS011;3145;42.726;23.342;2024-02-23T02:20:07;23.93;;;17.80;;
6223;SDS011;3145;42.726;23.342;2024-02-23T02:22:39;21.40;;;16.83;;
6223;SDS011;3145;42.726;23.342;2024-02-23T02:25:06;25.90;;;17.77;;
6223;SDS011;3145;42.726;23.342;2024-02-23T02:27:34;25.23;;;17.33;;
6223;SDS011;3145;42.726;23.342;2024-02-23T02:30:01;24.57;;;18.60;;
6223;SDS011;3145;42.726;23.342;2024-02-23T02:32:28;28.33;;;19.23;;
6223;SDS011;3145;42.726;23.342;2024-02-23T02:34:55;23.60;;;18.27;;
6223;SDS011;3145;42.726;23.342;2024-02-23T02:37:21;37.23;;;26.40;;
6223;SDS011;3145;42.726;23.342;2024-02-23T02:39:49;123.57;;;83.40;;
6223;SDS011;3145;42.726;23.342;2024-02-23T02:42:16;123.40;;;82.33;;
6223;SDS011;3145;42.726;23.342;2024-02-23T02:44:43;114.07;;;73.40;;
6223;SDS011;3145;42.726;23.342;2024-02-23T02:47:10;101.83;;;65.43;;
6223;SDS011;3145;42.726;23.342;2024-02-23T02:49:37;104.70;;;66.23;;
6223;SDS011;3145;42.726;23.342;2024-02-23T02:52:05;62.03;;;41.77;;
6223;SDS011;3145;42.726;23.342;2024-02-23T02:54:33;67.33;;;45.90;;
6223;SDS011;3145;42.726;23.342;2024-02-23T02:57:01;91.07;;;56.40;;
6223;SDS011;3145;42.726;23.342;2024-02-23T02:59:28;74.27;;;50.47;;
6223;SDS011;3145;42.726;23.342;2024-02-23T03:01:56;67.57;;;47.40;;
6223;SDS011;3145;42.726;23.342;2024-02-23T03:04:23;53.80;;;37.87;;
6223;SDS011;3145;42.726;23.342;2024-02-23T03:06:50;36.27;;;26.17;;
6223;SDS011;3145;42.726;23.342;2024-02-23T03:09:17;36.40;;;26.50;;
6223;SDS011;3145;42.726;23.342;2024-02-23T03:11:43;39.90;;;29.07;;
6223;SDS011;3145;42.726;23.342;2024-02-23T03:14:12;43.70;;;29.53;;
6223;SDS011;3145;42.726;23.342;2024-02-23T03:16:38;38.70;;;28.67;;
6223;SDS011;3145;42.726;23.342;2024-02-23T03:19:05;42.57;;;30.03;;
6223;SDS011;3145;42.726;23.342;2024-02-23T03:21:33;22.93;;;18.00;;
6223;SDS011;3145;42.726;23.342;2024-02-23T03:24:00;24.73;;;18.37;;
6223;SDS011;3145;42.726;23.342;2024-02-23T03:26:26;27.50;;;20.27;;
6223;SDS011;3145;42.726;23.342;2024-02-23T03:28:53;23.67;;;18.37;;
6223;SDS011;3145;42.726;23.342;2024-02-23T03:31:21;24.67;;;18.90;;
6223;SDS011;3145;42.726;23.342;2024-02-23T03:33:48;26.77;;;20.03;;
6223;SDS011;3145;42.726;23.342;2024-02-23T03:36:15;18.40;;;15.40;;
6223;SDS011;3145;42.726;23.342;2024-02-23T03:38:41;20.20;;;14.20;;
6223;SDS011;3145;42.726;23.342;2024-02-23T03:41:08;13.43;;;11.30;;
6223;SDS011;3145;42.726;23.342;2024-02-23T03:43:35;14.60;;;12.87;;
6223;SDS011;3145;42.726;23.342;2024-02-23T03:46:03;18.43;;;15.23;;
6223;SDS011;3145;42.726;23.342;2024-02-23T03:48:33;17.37;;;15.13;;
6223;SDS011;3145;42.726;23.342;2024-02-23T03:51:02;19.20;;;15.27;;
6223;SDS011;3145;42.726;23.342;2024-02-23T03:53:30;19.43;;;14.80;;
6223;SDS011;3145;42.726;23.342;2024-02-23T03:55:56;15.60;;;13.67;;
6223;SDS011;3145;42.726;23.342;2024-02-23T03:58:23;17.03;;;13.67;;
6223;SDS011;3145;42.726;23.342;2024-02-23T04:00:50;15.37;;;13.33;;
6223;SDS011;3145;42.726;23.342;2024-02-23T04:03:18;13.93;;;11.83;;
6223;SDS011;3145;42.726;23.342;2024-02-23T04:05:46;19.63;;;13.33;;
6223;SDS011;3145;42.726;23.342;2024-02-23T04:08:13;19.27;;;14.00;;
6223;SDS011;3145;42.726;23.342;2024-02-23T04:10:40;20.50;;;15.83;;
6223;SDS011;3145;42.726;23.342;2024-02-23T04:13:06;25.10;;;16.83;;
6223;SDS011;3145;42.726;23.342;2024-02-23T04:15:33;17.43;;;13.97;;
6223;SDS011;3145;42.726;23.342;2024-02-23T04:18:00;19.20;;;13.60;;
6223;SDS011;3145;42.726;23.342;2024-02-23T04:20:28;23.27;;;17.20;;
6223;SDS011;3145;42.726;23.342;2024-02-23T04:22:56;18.40;;;14.67;;
6223;SDS011;3145;42.726;23.342;2024-02-23T04:25:23;19.40;;;14.27;;
6223;SDS011;3145;42.726;23.342;2024-02-23T04:27:50;19.53;;;15.03;;
6223;SDS011;3145;42.726;23.342;2024-02-23T04:30:16;14.57;;;13.07;;
6223;SDS011;3145;42.726;23.342;2024-02-23T04:32:43;22.07;;;17.33;;
6223;SDS011;3145;42.726;23.342;2024-02-23T04:35:10;21.73;;;15.90;;
6223;SDS011;3145;42.726;23.342;2024-02-23T04:37:37;32.90;;;21.77;;
6223;SDS011;3145;42.726;23.342;2024-02-23T04:40:06;26.60;;;19.93;;
6223;SDS011;3145;42.726;23.342;2024-02-23T04:42:33;31.57;;;22.50;;
6223;SDS011;3145;42.726;23.342;2024-02-23T04:45:00;32.17;;;22.77;;
6223;SDS011;3145;42.726;23.342;2024-02-23T04:47:27;19.63;;;16.00;;
6223;SDS011;3145;42.726;23.342;2024-02-23T04:49:54;22.77;;;16.73;;
6223;SDS011;3145;42.726;23.342;2024-02-23T04:52:20;24.33;;;18.40;;
6223;SDS011;3145;42.726;23.342;2024-02-23T04:54:47;26.27;;;19.63;;
6223;SDS011;3145;42.726;23.342;2024-02-23T04:57:15;26.60;;;20.17;;
6223;SDS011;3145;42.726;23.342;2024-02-23T04:59:42;29.50;;;19.83;;
6223;SDS011;3145;42.726;23.342;2024-02-23T05:02:09;25.37;;;18.13;;
6223;SDS011;3145;42.726;23.342;2024-02-23T05:04:35;29.80;;;21.20;;
6223;SDS011;3145;42.726;23.342;2024-02-23T05:07:02;26.20;;;19.10;;
6223;SDS011;3145;42.726;23.342;2024-02-23T05:09:29;25.07;;;18.37;;
6223;SDS011;3145;42.726;23.342;2024-02-23T05:11:56;22.37;;;18.73;;
6223;SDS011;3145;42.726;23.342;2024-02-23T05:14:25;21.70;;;17.80;;
6223;SDS011;3145;42.726;23.342;2024-02-23T05:16:52;19.57;;;16.27;;
6223;SDS011;3145;42.726;23.342;2024-02-23T05:19:19;22.23;;;17.03;;
6223;SDS011;3145;42.726;23.342;2024-02-23T05:21:46;27.77;;;19.57;;
6223;SDS011;3145;42.726;23.342;2024-02-23T05:24:12;27.00;;;21.30;;
6223;SDS011;3145;42.726;23.342;2024-02-23T05:26:39;31.20;;;21.87;;
6223;SDS011;3145;42.726;23.342;2024-02-23T05:29:06;24.67;;;18.03;;
6223;SDS011;3145;42.726;23.342;2024-02-23T05:34:16;26.27;;;21.80;;
6223;SDS011;3145;42.726;23.342;2024-02-23T05:36:43;32.43;;;23.00;;
6223;SDS011;3145;42.726;23.342;2024-02-23T05:39:11;33.00;;;21.17;;
6223;SDS011;3145;42.726;23.342;2024-02-23T05:41:38;27.73;;;20.17;;
6223;SDS011;3145;42.726;23.342;2024-02-23T05:44:05;25.53;;;19.13;;
6223;SDS011;3145;42.726;23.342;2024-02-23T05:46:32;23.03;;;19.37;;
6223;SDS011;3145;42.726;23.342;2024-02-23T05:49:00;29.60;;;20.07;;
6223;SDS011;3145;42.726;23.342;2024-02-23T05:51:27;33.73;;;20.83;;
6223;SDS011;3145;42.726;23.342;2024-02-23T05:53:55;48.97;;;25.27;;
6223;SDS011;3145;42.726;23.342;2024-02-23T05:56:22;41.03;;;27.60;;
6223;SDS011;3145;42.726;23.342;2024-02-23T05:58:49;33.30;;;25.13;;
6223;SDS011;3145;42.726;23.342;2024-02-23T06:01:16;36.77;;;25.80;;
6223;SDS011;3145;42.726;23.342;2024-02-23T06:03:43;32.50;;;24.93;;
6223;SDS011;3145;42.726;23.342;2024-02-23T06:06:12;42.93;;;26.10;;
6223;SDS011;3145;42.726;23.342;2024-02-23T06:08:39;43.27;;;28.03;;
6223;SDS011;3145;42.726;23.342;2024-02-23T06:11:06;42.60;;;25.70;;
6223;SDS011;3145;42.726;23.342;2024-02-23T06:13:35;33.20;;;25.17;;
6223;SDS011;3145;42.726;23.342;2024-02-23T06:16:02;36.13;;;25.10;;
6223;SDS011;3145;42.726;23.342;2024-02-23T06:18:29;31.43;;;20.17;;
6223;SDS011;3145;42.726;23.342;2024-02-23T06:20:55;32.97;;;23.50;;
6223;SDS011;3145;42.726;23.342;2024-02-23T06:23:23;27.77;;;19.80;;
6223;SDS011;3145;42.726;23.342;2024-02-23T06:25:50;23.80;;;17.20;;
6223;SDS011;3145;42.726;23.342;2024-02-23T06:28:17;30.30;;;19.40;;
6223;SDS011;3145;42.726;23.342;2024-02-23T06:30:43;30.20;;;18.63;;
6223;SDS011;3145;42.726;23.342;2024-02-23T06:33:10;27.00;;;20.83;;
6223;SDS011;3145;42.726;23.342;2024-02-23T06:35:37;30.17;;;20.03;;
6223;SDS011;3145;42.726;23.342;2024-02-23T06:38:04;31.40;;;20.00;;
6223;SDS011;3145;42.726;23.342;2024-02-23T06:40:33;29.97;;;20.30;;
6223;SDS011;3145;42.726;23.342;2024-02-23T06:42:59;29.57;;;20.20;;
6223;SDS011;3145;42.726;23.342;2024-02-23T06:45:26;31.93;;;20.23;;
6223;SDS011;3145;42.726;23.342;2024-02-23T06:47:53;30.40;;;18.87;;
6223;SDS011;3145;42.726;23.342;2024-02-23T06:50:20;28.97;;;20.03;;
6223;SDS011;3145;42.726;23.342;2024-02-23T06:52:47;29.87;;;20.43;;
6223;SDS011;3145;42.726;23.342;2024-02-23T06:55:14;24.23;;;19.57;;
6223;SDS011;3145;42.726;23.342;2024-02-23T06:57:43;28.70;;;21.27;;
6223;SDS011;3145;42.726;23.342;2024-02-23T07:00:10;28.40;;;19.83;;
6223;SDS011;3145;42.726;23.342;2024-02-23T07:02:37;40.53;;;22.57;;
6223;SDS011;3145;42.726;23.342;2024-02-23T07:05:04;29.27;;;20.53;;
6223;SDS011;3145;42.726;23.342;2024-02-23T07:07:31;32.60;;;19.67;;
6223;SDS011;3145;42.726;23.342;2024-02-23T07:09:58;31.23;;;20.03;;
6223;SDS011;3145;42.726;23.342;2024-02-23T07:12:25;32.27;;;21.53;;
6223;SDS011;3145;42.726;23.342;2024-02-23T07:14:53;29.67;;;20.03;;
6223;SDS011;3145;42.726;23.342;2024-02-23T07:17:20;28.57;;;19.73;;
6223;SDS011;3145;42.726;23.342;2024-02-23T07:19:47;28.27;;;18.87;;
6223;SDS011;3145;42.726;23.342;2024-02-23T07:22:15;31.03;;;21.20;;
6223;SDS011;3145;42.726;23.342;2024-02-23T07:24:43;27.43;;;20.07;;
6223;SDS011;3145;42.726;23.342;2024-02-23T07:27:10;22.53;;;17.33;;
6223;SDS011;3145;42.726;23.342;2024-02-23T07:29:36;25.17;;;18.17;;
6223;SDS011;3145;42.726;23.342;2024-02-23T07:32:05;35.23;;;20.47;;
6223;SDS011;3145;42.726;23.342;2024-02-23T07:34:32;29.03;;;17.00;;
6223;SDS011;3145;42.726;23.342;2024-02-23T07:36:58;25.70;;;16.57;;
6223;SDS011;3145;42.726;23.342;2024-02-23T07:39:25;22.27;;;16.30;;
6223;SDS011;3145;42.726;23.342;2024-02-23T07:41:52;20.63;;;15.77;;
6223;SDS011;3145;42.726;23.342;2024-02-23T07:44:19;17.83;;;14.00;;
6223;SDS011;3145;42.726;23.342;2024-02-23T07:46:45;20.10;;;15.60;;
6223;SDS011;3145;42.726;23.342;2024-02-23T07:49:13;17.27;;;14.07;;
6223;SDS011;3145;42.726;23.342;2024-02-23T07:51:40;18.87;;;16.03;;
6223;SDS011;3145;42.726;23.342;2024-02-23T07:54:07;22.40;;;15.37;;
6223;SDS011;3145;42.726;23.342;2024-02-23T07:56:33;18.10;;;14.77;;
6223;SDS011;3145;42.726;23.342;2024-02-23T07:59:00;19.83;;;15.13;;
6223;SDS011;3145;42.726;23.342;2024-02-23T08:01:28;24.80;;;16.50;;
6223;SDS011;3145;42.726;23.342;2024-02-23T08:03:55;20.17;;;15.53;;
6223;SDS011;3145;42.726;23.342;2024-02-23T08:06:23;19.00;;;14.47;;
6223;SDS011;3145;42.726;23.342;2024-02-23T08:08:50;20.70;;;15.03;;
6223;SDS011;3145;42.726;23.342;2024-02-23T08:11:18;18.30;;;15.80;;
6223;SDS011;3145;42.726;23.342;2024-02-23T08:13:45;17.10;;;14.30;;
6223;SDS011;3145;42.726;23.342;2024-02-23T08:16:12;20.17;;;14.43;;
6223;SDS011;3145;42.726;23.342;2024-02-23T08:18:38;17.40;;;14.27;;
6223;SDS011;3145;42.726;23.342;2024-02-23T08:21:05;15.93;;;14.23;;
6223;SDS011;3145;42.726;23.342;2024-02-23T08:23:34;17.60;;;14.90;;
6223;SDS011;3145;42.726;23.342;2024-02-23T08:26:00;22.30;;;14.80;;
6223;SDS011;3145;42.726;23.342;2024-02-23T08:28:27;18.67;;;15.90;;
6223;SDS011;3145;42.726;23.342;2024-02-23T08:30:54;18.53;;;15.33;;
6223;SDS011;3145;42.726;23.342;2024-02-23T08:33:20;19.20;;;15.67;;
6223;SDS011;3145;42.726;23.342;2024-02-23T08:35:47;22.13;;;15.53;;
6223;SDS011;3145;42.726;23.342;2024-02-23T08:38:14;19.63;;;15.40;;
6223;SDS011;3145;42.726;23.342;2024-02-23T08:40:42;20.57;;;14.70;;
6223;SDS011;3145;42.726;23.342;2024-02-23T08:43:10;20.07;;;14.90;;
6223;SDS011;3145;42.726;23.342;2024-02-23T08:45:37;18.97;;;15.47;;
6223;SDS011;3145;42.726;23.342;2024-02-23T08:48:03;18.43;;;14.47;;
6223;SDS011;3145;42.726;23.342;2024-02-23T08:50:32;17.10;;;13.33;;
6223;SDS011;3145;42.726;23.342;2024-02-23T08:52:59;11.17;;;9.00;;
6223;SDS011;3145;42.726;23.342;2024-02-23T08:55:25;13.40;;;10.97;;
6223;SDS011;3145;42.726;23.342;2024-02-23T08:57:53;13.03;;;9.33;;
6223;SDS011;3145;42.726;23.342;2024-02-23T09:00:20;15.17;;;9.10;;
6223;SDS011;3145;42.726;23.342;2024-02-23T09:02:47;9.70;;;8.80;;
6223;SDS011;3145;42.726;23.342;2024-02-23T09:05:15;12.60;;;9.70;;
6223;SDS011;3145;42.726;23.342;2024-02-23T09:07:42;9.93;;;8.90;;
6223;SDS011;3145;42.726;23.342;2024-02-23T09:10:10;13.30;;;10.13;;
6223;SDS011;3145;42.726;23.342;2024-02-23T09:12:37;17.97;;;11.13;;
6223;SDS011;3145;42.726;23.342;2024-02-23T09:15:05;10.17;;;8.83;;
6223;SDS011;3145;42.726;23.342;2024-02-23T09:17:32;11.10;;;9.93;;
6223;SDS011;3145;42.726;23.342;2024-02-23T09:19:59;14.93;;;9.53;;
6223;SDS011;3145;42.726;23.342;2024-02-23T09:22:26;10.67;;;8.97;;
6223;SDS011;3145;42.726;23.342;2024-02-23T09:24:52;10.40;;;8.77;;
6223;SDS011;3145;42.726;23.342;2024-02-23T09:27:21;8.93;;;8.13;;
6223;SDS011;3145;42.726;23.342;2024-02-23T09:29:48;10.40;;;9.23;;
6223;SDS011;3145;42.726;23.342;2024-02-23T09:32:16;11.23;;;9.03;;
6223;SDS011;3145;42.726;23.342;2024-02-23T09:34:43;11.83;;;8.23;;
6223;SDS011;3145;42.726;23.342;2024-02-23T09:37:09;14.40;;;8.57;;
6223;SDS011;3145;42.726;23.342;2024-02-23T09:39:37;11.50;;;8.67;;
6223;SDS011;3145;42.726;23.342;2024-02-23T09:42:04;9.13;;;8.03;;
6223;SDS011;3145;42.726;23.342;2024-02-23T09:44:35;8.33;;;7.53;;
6223;SDS011;3145;42.726;23.342;2024-02-23T09:47:03;11.60;;;9.37;;
6223;SDS011;3145;42.726;23.342;2024-02-23T09:49:37;8.83;;;8.00;;
6223;SDS011;3145;42.726;23.342;2024-02-23T09:52:05;8.33;;;7.50;;
6223;SDS011;3145;42.726;23.342;2024-02-23T09:54:33;9.60;;;7.40;;
6223;SDS011;3145;42.726;23.342;2024-02-23T09:57:01;8.90;;;7.20;;
6223;SDS011;3145;42.726;23.342;2024-02-23T09:59:32;3.63;;;3.40;;
6223;SDS011;3145;42.726;23.342;2024-02-23T10:02:00;7.47;;;5.50;;
6223;SDS011;3145;42.726;23.342;2024-02-23T10:04:28;6.63;;;5.53;;
6223;SDS011;3145;42.726;23.342;2024-02-23T10:06:57;5.60;;;4.73;;
6223;SDS011;3145;42.726;23.342;2024-02-23T10:09:24;5.20;;;3.57;;
6223;SDS011;3145;42.726;23.342;2024-02-23T10:11:51;9.20;;;5.27;;
6223;SDS011;3145;42.726;23.342;2024-02-23T10:14:19;5.80;;;5.40;;
6223;SDS011;3145;42.726;23.342;2024-02-23T10:16:46;9.17;;;4.93;;
6223;SDS011;3145;42.726;23.342;2024-02-23T10:19:13;4.20;;;3.57;;
6223;SDS011;3145;42.726;23.342;2024-02-23T10:21:40;2.93;;;2.73;;
6223;SDS011;3145;42.726;23.342;2024-02-23T10:24:08;3.63;;;2.97;;
6223;SDS011;3145;42.726;23.342;2024-02-23T10:26:36;4.07;;;2.97;;
6223;SDS011;3145;42.726;23.342;2024-02-23T10:29:02;3.40;;;3.10;;
6223;SDS011;3145;42.726;23.342;2024-02-23T10:31:29;6.77;;;3.83;;
6223;SDS011;3145;42.726;23.342;2024-02-23T10:34:00;2.60;;;2.40;;
6223;SDS011;3145;42.726;23.342;2024-02-23T10:36:34;3.23;;;3.03;;
6223;SDS011;3145;42.726;23.342;2024-02-23T10:39:07;2.87;;;2.67;;
6223;SDS011;3145;42.726;23.342;2024-02-23T10:41:35;4.27;;;3.43;;
6223;SDS011;3145;42.726;23.342;2024-02-23T10:44:03;2.40;;;2.20;;
6223;SDS011;3145;42.726;23.342;2024-02-23T10:46:30;2.87;;;2.67;;
6223;SDS011;3145;42.726;23.342;2024-02-23T10:48:58;2.73;;;2.33;;
6223;SDS011;3145;42.726;23.342;2024-02-23T10:51:25;3.87;;;2.50;;
6223;SDS011;3145;42.726;23.342;2024-02-23T10:53:52;2.80;;;2.50;;
6223;SDS011;3145;42.726;23.342;2024-02-23T10:56:21;2.80;;;2.60;;
6223;SDS011;3145;42.726;23.342;2024-02-23T10:58:49;3.37;;;2.73;;
6223;SDS011;3145;42.726;23.342;2024-02-23T11:01:16;6.40;;;2.80;;
6223;SDS011;3145;42.726;23.342;2024-02-23T11:03:46;2.47;;;2.27;;
6223;SDS011;3145;42.726;23.342;2024-02-23T11:06:15;2.80;;;2.10;;
6223;SDS011;3145;42.726;23.342;2024-02-23T11:08:46;2.60;;;2.40;;
6223;SDS011;3145;42.726;23.342;2024-02-23T11:11:12;3.53;;;2.57;;
6223;SDS011;3145;42.726;23.342;2024-02-23T11:13:44;3.50;;;2.67;;
6223;SDS011;3145;42.726;23.342;2024-02-23T11:16:12;2.77;;;2.37;;
6223;SDS011;3145;42.726;23.342;2024-02-23T11:18:48;2.60;;;2.40;;
6223;SDS011;3145;42.726;23.342;2024-02-23T11:21:15;3.20;;;2.50;;
6223;SDS011;3145;42.726;23.342;2024-02-23T11:23:41;2.60;;;2.40;;
6223;SDS011;3145;42.726;23.342;2024-02-23T11:26:09;2.63;;;2.43;;
6223;SDS011;3145;42.726;23.342;2024-02-23T11:28:48;3.07;;;1.97;;
6223;SDS011;3145;42.726;23.342;2024-02-23T11:31:18;2.40;;;2.30;;
6223;SDS011;3145;42.726;23.342;2024-02-23T11:33:49;2.40;;;2.20;;
6223;SDS011;3145;42.726;23.342;2024-02-23T11:36:23;2.40;;;2.10;;
6223;SDS011;3145;42.726;23.342;2024-02-23T11:38:53;2.50;;;2.30;;
6223;SDS011;3145;42.726;23.342;2024-02-23T11:41:21;2.17;;;1.97;;
6223;SDS011;3145;42.726;23.342;2024-02-23T11:43:49;3.97;;;2.17;;
6223;SDS011;3145;42.726;23.342;2024-02-23T11:46:16;3.07;;;2.47;;
6223;SDS011;3145;42.726;23.342;2024-02-23T11:48:43;2.70;;;2.37;;
6223;SDS011;3145;42.726;23.342;2024-02-23T11:51:11;2.10;;;2.00;;
6223;SDS011;3145;42.726;23.342;2024-02-23T11:53:38;3.23;;;2.90;;
6223;SDS011;3145;42.726;23.342;2024-02-23T11:56:05;2.20;;;2.10;;
6223;SDS011;3145;42.726;23.342;2024-02-23T11:58:32;2.07;;;1.97;;
6223;SDS011;3145;42.726;23.342;2024-02-23T12:01:01;3.30;;;2.20;;
6223;SDS011;3145;42.726;23.342;2024-02-23T12:03:28;2.27;;;2.07;;
6223;SDS011;3145;42.726;23.342;2024-02-23T12:05:55;3.77;;;2.50;;
6223;SDS011;3145;42.726;23.342;2024-02-23T12:08:23;1.93;;;1.83;;
6223;SDS011;3145;42.726;23.342;2024-02-23T12:10:51;3.03;;;2.33;;
6223;SDS011;3145;42.726;23.342;2024-02-23T12:13:18;2.83;;;2.63;;
6223;SDS011;3145;42.726;23.342;2024-02-23T12:15:45;2.93;;;2.43;;
6223;SDS011;3145;42.726;23.342;2024-02-23T12:18:13;5.07;;;3.03;;
6223;SDS011;3145;42.726;23.342;2024-02-23T12:20:40;2.60;;;2.40;;
6223;SDS011;3145;42.726;23.342;2024-02-23T12:23:07;2.73;;;2.53;;
6223;SDS011;3145;42.726;23.342;2024-02-23T12:25:35;2.27;;;2.17;;
6223;SDS011;3145;42.726;23.342;2024-02-23T12:28:02;2.57;;;2.37;;
6223;SDS011;3145;42.726;23.342;2024-02-23T12:30:29;2.57;;;2.37;;
6223;SDS011;3145;42.726;23.342;2024-02-23T12:33:02;2.07;;;1.97;;
6223;SDS011;3145;42.726;23.342;2024-02-23T12:35:31;3.63;;;1.93;;
6223;SDS011;3145;42.726;23.342;2024-02-23T12:37:57;2.73;;;2.53;;
6223;SDS011;3145;42.726;23.342;2024-02-23T12:40:24;2.47;;;2.37;;
6223;SDS011;3145;42.726;23.342;2024-02-23T12:42:51;2.47;;;2.27;;
6223;SDS011;3145;42.726;23.342;2024-02-23T12:45:18;3.33;;;2.53;;
6223;SDS011;3145;42.726;23.342;2024-02-23T12:47:45;2.40;;;2.20;;
6223;SDS011;3145;42.726;23.342;2024-02-23T12:50:11;3.20;;;2.10;;
6223;SDS011;3145;42.726;23.342;2024-02-23T12:52:39;1.70;;;1.60;;
6223;SDS011;3145;42.726;23.342;2024-02-23T12:55:07;2.23;;;2.03;;
6223;SDS011;3145;42.726;23.342;2024-02-23T12:57:34;5.03;;;2.70;;
6223;SDS011;3145;42.726;23.342;2024-02-23T13:00:01;2.63;;;2.27;;
6223;SDS011;3145;42.726;23.342;2024-02-23T13:02:28;2.90;;;2.70;;
6223;SDS011;3145;42.726;23.342;2024-02-23T13:04:54;2.70;;;2.50;;
6223;SDS011;3145;42.726;23.342;2024-02-23T13:07:21;3.70;;;1.97;;
6223;SDS011;3145;42.726;23.342;2024-02-23T13:09:49;2.53;;;1.90;;
6223;SDS011;3145;42.726;23.342;2024-02-23T13:12:15;2.00;;;1.90;;
6223;SDS011;3145;42.726;23.342;2024-02-23T13:14:42;3.27;;;2.00;;
6223;SDS011;3145;42.726;23.342;2024-02-23T13:17:09;2.03;;;1.90;;
6223;SDS011;3145;42.726;23.342;2024-02-23T13:19:35;3.03;;;2.13;;
6223;SDS011;3145;42.726;23.342;2024-02-23T13:22:02;2.40;;;2.20;;
6223;SDS011;3145;42.726;23.342;2024-02-23T13:24:29;3.03;;;2.70;;
6223;SDS011;3145;42.726;23.342;2024-02-23T13:26:57;1.90;;;1.80;;
6223;SDS011;3145;42.726;23.342;2024-02-23T13:29:24;4.30;;;2.20;;
6223;SDS011;3145;42.726;23.342;2024-02-23T13:31:50;2.80;;;2.50;;
6223;SDS011;3145;42.726;23.342;2024-02-23T13:34:17;3.07;;;2.87;;
6223;SDS011;3145;42.726;23.342;2024-02-23T13:36:44;5.63;;;3.30;;
6223;SDS011;3145;42.726;23.342;2024-02-23T13:39:11;4.20;;;2.30;;
6223;SDS011;3145;42.726;23.342;2024-02-23T13:41:38;6.60;;;2.67;;
6223;SDS011;3145;42.726;23.342;2024-02-23T13:44:06;10.50;;;3.20;;
6223;SDS011;3145;42.726;23.342;2024-02-23T13:46:35;6.57;;;3.00;;
6223;SDS011;3145;42.726;23.342;2024-02-23T13:49:04;2.30;;;2.10;;
6223;SDS011;3145;42.726;23.342;2024-02-23T13:51:32;3.03;;;2.60;;
6223;SDS011;3145;42.726;23.342;2024-02-23T13:53:59;2.63;;;2.43;;
6223;SDS011;3145;42.726;23.342;2024-02-23T13:56:26;3.40;;;3.10;;
6223;SDS011;3145;42.726;23.342;2024-02-23T13:58:53;3.57;;;2.60;;
6223;SDS011;3145;42.726;23.342;2024-02-23T14:01:21;4.17;;;3.63;;
6223;SDS011;3145;42.726;23.342;2024-02-23T14:03:47;3.40;;;3.17;;
6223;SDS011;3145;42.726;23.342;2024-02-23T14:06:14;4.57;;;3.77;;
6223;SDS011;3145;42.726;23.342;2024-02-23T14:08:41;6.60;;;3.73;;
6223;SDS011;3145;42.726;23.342;2024-02-23T14:11:09;4.27;;;3.23;;
6223;SDS011;3145;42.726;23.342;2024-02-23T14:13:36;3.73;;;3.43;;
6223;SDS011;3145;42.726;23.342;2024-02-23T14:16:03;2.67;;;2.47;;
6223;SDS011;3145;42.726;23.342;2024-02-23T14:18:31;2.43;;;2.23;;
6223;SDS011;3145;42.726;23.342;2024-02-23T14:21:02;2.87;;;2.67;;
6223;SDS011;3145;42.726;23.342;2024-02-23T14:23:29;2.80;;;2.60;;
6223;SDS011;3145;42.726;23.342;2024-02-23T14:25:56;3.00;;;2.80;;
6223;SDS011;3145;42.726;23.342;2024-02-23T14:28:23;6.10;;;3.90;;
6223;SDS011;3145;42.726;23.342;2024-02-23T14:30:49;4.77;;;3.10;;
6223;SDS011;3145;42.726;23.342;2024-02-23T14:33:16;6.27;;;3.33;;
6223;SDS011;3145;42.726;23.342;2024-02-23T14:35:44;3.73;;;3.37;;
6223;SDS011;3145;42.726;23.342;2024-02-23T14:38:11;3.00;;;2.80;;
6223;SDS011;3145;42.726;23.342;2024-02-23T14:40:37;6.10;;;2.70;;
6223;SDS011;3145;42.726;23.342;2024-02-23T14:43:04;3.20;;;2.90;;
6223;SDS011;3145;42.726;23.342;2024-02-23T14:45:31;3.20;;;2.60;;